sensor_id;sensor_type;location;lat;lon;timestamp;pressure;altitude;pressure_sealevel;temperature;humidity
35577;BME280;21680;52.400;16.920;2022-07-30T00:00:49;100841.53;;;18.43;47.96
35577;BME280;21680;52.400;16.920;2022-07-30T00:03:15;100837.08;;;18.42;47.99
35577;BME280;21680;52.400;16.920;2022-07-30T00:05:41;100840.89;;;18.40;48.04
35577;BME280;21680;52.400;16.920;2022-07-30T00:08:07;100833.84;;;18.37;48.21
35577;BME280;21680;52.400;16.920;2022-07-30T00:10:33;100841.22;;;18.35;48.30
35577;BME280;21680;52.400;16.920;2022-07-30T00:12:59;100833.08;;;18.35;48.35
35577;BME280;21680;52.400;16.920;2022-07-30T00:15:26;100829.61;;;18.33;48.32
35577;BME280;21680;52.400;16.920;2022-07-30T00:17:52;100835.15;;;18.32;48.43
35577;BME280;21680;52.400;16.920;2022-07-30T00:20:18;100825.61;;;18.26;48.46
35577;BME280;21680;52.400;16.920;2022-07-30T00:22:44;100823.49;;;18.24;48.46
35577;BME280;21680;52.400;16.920;2022-07-30T00:25:11;100821.87;;;18.22;48.54
35577;BME280;21680;52.400;16.920;2022-07-30T00:27:38;100813.98;;;18.19;48.55
35577;BME280;21680;52.400;16.920;2022-07-30T00:30:05;100811.61;;;18.14;48.60
35577;BME280;21680;52.400;16.920;2022-07-30T00:32:32;100814.92;;;18.12;48.66
35577;BME280;21680;52.400;16.920;2022-07-30T00:34:58;100811.45;;;18.10;48.73
35577;BME280;21680;52.400;16.920;2022-07-30T00:37:24;100807.71;;;18.05;48.74
35577;BME280;21680;52.400;16.920;2022-07-30T00:39:49;100809.28;;;18.02;48.83
35577;BME280;21680;52.400;16.920;2022-07-30T00:42:15;100812.48;;;18.02;48.89
35577;BME280;21680;52.400;16.920;2022-07-30T00:44:43;100808.53;;;18.00;48.95
35577;BME280;21680;52.400;16.920;2022-07-30T00:47:09;100807.88;;;17.97;48.98
35577;BME280;21680;52.400;16.920;2022-07-30T00:49:34;100812.92;;;17.96;49.02
35577;BME280;21680;52.400;16.920;2022-07-30T00:52:00;100803.65;;;17.93;49.06
35577;BME280;21680;52.400;16.920;2022-07-30T00:54:26;100813.74;;;17.91;49.05
35577;BME280;21680;52.400;16.920;2022-07-30T00:56:52;100803.98;;;17.88;49.10
35577;BME280;21680;52.400;16.920;2022-07-30T00:59:18;100801.59;;;17.83;49.21
35577;BME280;21680;52.400;16.920;2022-07-30T01:01:44;100800.84;;;17.81;49.24
35577;BME280;21680;52.400;16.920;2022-07-30T01:04:09;100795.14;;;17.79;49.30
35577;BME280;21680;52.400;16.920;2022-07-30T01:06:39;100790.80;;;17.76;49.35
35577;BME280;21680;52.400;16.920;2022-07-30T01:09:06;100796.44;;;17.73;49.39
35577;BME280;21680;52.400;16.920;2022-07-30T01:11:37;100805.39;;;17.68;49.50
35577;BME280;21680;52.400;16.920;2022-07-30T01:14:06;100799.28;;;17.65;49.61
35577;BME280;21680;52.400;16.920;2022-07-30T01:16:37;100802.53;;;17.57;49.72
35577;BME280;21680;52.400;16.920;2022-07-30T01:19:16;100801.88;;;17.53;49.83
35577;BME280;21680;52.400;16.920;2022-07-30T01:22:28;100801.11;;;17.51;49.89
35577;BME280;21680;52.400;16.920;2022-07-30T01:25:23;100800.45;;;17.48;49.96
35577;BME280;21680;52.400;16.920;2022-07-30T01:28:08;100794.49;;;17.43;50.08
35577;BME280;21680;52.400;16.920;2022-07-30T01:30:39;100790.64;;;17.40;50.20
35577;BME280;21680;52.400;16.920;2022-07-30T01:33:10;100785.05;;;17.36;50.25
35577;BME280;21680;52.400;16.920;2022-07-30T01:35:37;100781.47;;;17.35;50.48
35577;BME280;21680;52.400;16.920;2022-07-30T01:38:05;100781.20;;;17.33;50.47
35577;BME280;21680;52.400;16.920;2022-07-30T01:40:33;100773.66;;;17.31;50.55
35577;BME280;21680;52.400;16.920;2022-07-30T01:43:01;100766.62;;;17.28;50.64
35577;BME280;21680;52.400;16.920;2022-07-30T01:45:29;100765.48;;;17.25;50.76
35577;BME280;21680;52.400;16.920;2022-07-30T01:47:58;100763.63;;;17.26;50.84
35577;BME280;21680;52.400;16.920;2022-07-30T01:50:26;100759.95;;;17.27;50.87
35577;BME280;21680;52.400;16.920;2022-07-30T01:52:54;100768.08;;;17.27;50.91
35577;BME280;21680;52.400;16.920;2022-07-30T01:55:35;100773.50;;;17.27;50.93
35577;BME280;21680;52.400;16.920;2022-07-30T01:58:02;100776.20;;;17.27;50.98
35577;BME280;21680;52.400;16.920;2022-07-30T02:00:32;100774.47;;;17.26;51.02
35577;BME280;21680;52.400;16.920;2022-07-30T02:02:59;100776.80;;;17.25;51.09
35577;BME280;21680;52.400;16.920;2022-07-30T02:05:27;100770.62;;;17.23;51.17
35577;BME280;21680;52.400;16.920;2022-07-30T02:08:00;100768.50;;;17.20;51.34
35577;BME280;21680;52.400;16.920;2022-07-30T02:10:44;100771.42;;;17.17;51.49
35577;BME280;21680;52.400;16.920;2022-07-30T02:13:21;100772.77;;;17.17;51.54
35577;BME280;21680;52.400;16.920;2022-07-30T02:15:56;100765.63;;;17.16;51.56
35577;BME280;21680;52.400;16.920;2022-07-30T02:18:51;100767.36;;;17.17;51.58
35577;BME280;21680;52.400;16.920;2022-07-30T02:21:23;100761.18;;;17.15;51.59
35577;BME280;21680;52.400;16.920;2022-07-30T02:23:52;100759.55;;;17.13;51.65
35577;BME280;21680;52.400;16.920;2022-07-30T02:26:22;100761.59;;;17.09;51.79
35577;BME280;21680;52.400;16.920;2022-07-30T02:28:52;100757.16;;;17.08;51.84
35577;BME280;21680;52.400;16.920;2022-07-30T02:31:22;100759.37;;;17.09;51.90
35577;BME280;21680;52.400;16.920;2022-07-30T02:33:52;100756.77;;;17.07;51.97
35577;BME280;21680;52.400;16.920;2022-07-30T02:36:20;100758.34;;;17.04;52.03
35577;BME280;21680;52.400;16.920;2022-07-30T02:38:48;100753.41;;;17.04;52.01
35577;BME280;21680;52.400;16.920;2022-07-30T02:41:16;100752.92;;;17.04;52.08
35577;BME280;21680;52.400;16.920;2022-07-30T02:43:44;100753.89;;;17.03;52.07
35577;BME280;21680;52.400;16.920;2022-07-30T02:46:13;100751.29;;;17.02;52.16
35577;BME280;21680;52.400;16.920;2022-07-30T02:48:44;100756.92;;;16.99;52.23
35577;BME280;21680;52.400;16.920;2022-07-30T02:51:14;100763.79;;;16.97;52.28
35577;BME280;21680;52.400;16.920;2022-07-30T02:53:44;100758.48;;;16.96;52.35
35577;BME280;21680;52.400;16.920;2022-07-30T02:56:11;100750.18;;;16.92;52.38
35577;BME280;21680;52.400;16.920;2022-07-30T02:58:41;100748.55;;;16.89;52.53
35577;BME280;21680;52.400;16.920;2022-07-30T03:01:12;100744.70;;;16.86;52.57
35577;BME280;21680;52.400;16.920;2022-07-30T03:03:42;100739.66;;;16.87;52.76
35577;BME280;21680;52.400;16.920;2022-07-30T03:06:11;100732.23;;;16.83;52.78
35577;BME280;21680;52.400;16.920;2022-07-30T03:08:41;100729.05;;;16.84;52.86
35577;BME280;21680;52.400;16.920;2022-07-30T03:11:10;100723.14;;;16.84;52.95
35577;BME280;21680;52.400;16.920;2022-07-30T03:13:37;100718.80;;;16.82;52.99
35577;BME280;21680;52.400;16.920;2022-07-30T03:16:06;100716.69;;;16.80;53.15
35577;BME280;21680;52.400;16.920;2022-07-30T03:18:36;100715.55;;;16.77;53.26
35577;BME280;21680;52.400;16.920;2022-07-30T03:21:08;100713.81;;;16.76;53.48
35577;BME280;21680;52.400;16.920;2022-07-30T03:23:35;100712.84;;;16.77;53.46
35577;BME280;21680;52.400;16.920;2022-07-30T03:26:03;100718.04;;;16.80;53.53
35577;BME280;21680;52.400;16.920;2022-07-30T03:28:32;100716.31;;;16.79;53.49
35577;BME280;21680;52.400;16.920;2022-07-30T03:30:59;100711.37;;;16.78;53.58
35577;BME280;21680;52.400;16.920;2022-07-30T03:33:30;100708.08;;;16.80;53.56
35577;BME280;21680;52.400;16.920;2022-07-30T03:35:57;100698.23;;;16.79;53.60
35577;BME280;21680;52.400;16.920;2022-07-30T03:38:24;100695.41;;;16.81;53.60
35577;BME280;21680;52.400;16.920;2022-07-30T03:40:51;100693.95;;;16.82;53.66
35577;BME280;21680;52.400;16.920;2022-07-30T03:43:18;100688.65;;;16.81;53.68
35577;BME280;21680;52.400;16.920;2022-07-30T03:45:45;100689.89;;;16.82;53.64
35577;BME280;21680;52.400;16.920;2022-07-30T03:48:12;100696.66;;;16.82;53.65
35577;BME280;21680;52.400;16.920;2022-07-30T03:50:40;100692.11;;;16.83;53.68
35577;BME280;21680;52.400;16.920;2022-07-30T03:53:08;100688.44;;;16.84;53.73
35577;BME280;21680;52.400;16.920;2022-07-30T03:55:36;100694.61;;;16.86;53.73
35577;BME280;21680;52.400;16.920;2022-07-30T03:58:02;100693.64;;;16.87;53.72
35577;BME280;21680;52.400;16.920;2022-07-30T04:00:29;100696.56;;;16.84;53.77
35577;BME280;21680;52.400;16.920;2022-07-30T04:02:55;100699.64;;;16.85;53.85
35577;BME280;21680;52.400;16.920;2022-07-30T04:05:21;100699.05;;;16.87;53.87
35577;BME280;21680;52.400;16.920;2022-07-30T04:07:47;100699.33;;;16.90;53.87
35577;BME280;21680;52.400;16.920;2022-07-30T04:10:14;100703.77;;;16.91;53.91
35577;BME280;21680;52.400;16.920;2022-07-30T04:12:41;100701.72;;;16.94;53.92
35577;BME280;21680;52.400;16.920;2022-07-30T04:15:08;100710.02;;;16.98;53.88
35577;BME280;21680;52.400;16.920;2022-07-30T04:17:37;100708.45;;;17.01;53.91
35577;BME280;21680;52.400;16.920;2022-07-30T04:20:11;100703.03;;;17.01;53.91
35577;BME280;21680;52.400;16.920;2022-07-30T04:22:41;100701.19;;;17.02;53.95
35577;BME280;21680;52.400;16.920;2022-07-30T04:25:08;100707.09;;;17.01;53.98
35577;BME280;21680;52.400;16.920;2022-07-30T04:27:35;100713.38;;;17.02;54.03
35577;BME280;21680;52.400;16.920;2022-07-30T04:30:03;100712.03;;;17.02;54.06
35577;BME280;21680;52.400;16.920;2022-07-30T04:32:31;100710.84;;;17.06;54.10
35577;BME280;21680;52.400;16.920;2022-07-30T04:34:58;100717.88;;;17.08;54.12
35577;BME280;21680;52.400;16.920;2022-07-30T04:37:25;100717.50;;;17.07;54.13
35577;BME280;21680;52.400;16.920;2022-07-30T04:39:52;100714.69;;;17.09;54.19
35577;BME280;21680;52.400;16.920;2022-07-30T04:42:20;100717.78;;;17.10;54.18
35577;BME280;21680;52.400;16.920;2022-07-30T04:44:46;100719.69;;;17.15;54.21
35577;BME280;21680;52.400;16.920;2022-07-30T04:47:12;100718.60;;;17.17;54.16
35577;BME280;21680;52.400;16.920;2022-07-30T04:49:39;100709.12;;;17.17;54.21
35577;BME280;21680;52.400;16.920;2022-07-30T04:52:07;100710.64;;;17.22;54.24
35577;BME280;21680;52.400;16.920;2022-07-30T04:54:41;100715.84;;;17.25;54.27
35577;BME280;21680;52.400;16.920;2022-07-30T04:57:08;100707.99;;;17.27;54.29
35577;BME280;21680;52.400;16.920;2022-07-30T04:59:36;100703.88;;;17.34;54.27
35577;BME280;21680;52.400;16.920;2022-07-30T05:02:03;100704.69;;;17.42;54.24
35577;BME280;21680;52.400;16.920;2022-07-30T05:04:32;100698.08;;;17.46;54.21
35577;BME280;21680;52.400;16.920;2022-07-30T05:07:02;100696.77;;;17.51;54.25
35577;BME280;21680;52.400;16.920;2022-07-30T05:09:30;100696.94;;;17.56;54.25
35577;BME280;21680;52.400;16.920;2022-07-30T05:11:56;100696.00;;;17.62;54.19
35577;BME280;21680;52.400;16.920;2022-07-30T05:14:24;100694.35;;;17.67;54.17
35577;BME280;21680;52.400;16.920;2022-07-30T05:16:52;100695.70;;;17.67;54.17
35577;BME280;21680;52.400;16.920;2022-07-30T05:19:20;100693.53;;;17.72;54.21
35577;BME280;21680;52.400;16.920;2022-07-30T05:21:47;100690.98;;;17.76;54.15
35577;BME280;21680;52.400;16.920;2022-07-30T05:24:13;100686.09;;;17.81;54.20
35577;BME280;21680;52.400;16.920;2022-07-30T05:26:39;100690.80;;;17.84;54.14
35577;BME280;21680;52.400;16.920;2022-07-30T05:29:06;100683.42;;;17.87;54.13
35577;BME280;21680;52.400;16.920;2022-07-30T05:31:32;100685.80;;;17.91;54.10
35577;BME280;21680;52.400;16.920;2022-07-30T05:33:58;100688.39;;;17.93;54.08
35577;BME280;21680;52.400;16.920;2022-07-30T05:36:24;100688.51;;;17.91;54.16
35577;BME280;21680;52.400;16.920;2022-07-30T05:38:50;100690.50;;;17.95;54.16
35577;BME280;21680;52.400;16.920;2022-07-30T05:41:16;100685.98;;;18.01;54.17
35577;BME280;21680;52.400;16.920;2022-07-30T05:43:42;100690.58;;;18.06;54.14
35577;BME280;21680;52.400;16.920;2022-07-30T05:46:08;100696.91;;;18.12;54.10
35577;BME280;21680;52.400;16.920;2022-07-30T05:48:34;100694.73;;;18.17;54.07
35577;BME280;21680;52.400;16.920;2022-07-30T05:51:01;100696.20;;;18.21;54.05
35577;BME280;21680;52.400;16.920;2022-07-30T05:53:29;100698.30;;;18.23;54.01
35577;BME280;21680;52.400;16.920;2022-07-30T05:55:55;100701.66;;;18.27;54.02
35577;BME280;21680;52.400;16.920;2022-07-30T05:58:21;100697.25;;;18.31;54.02
35577;BME280;21680;52.400;16.920;2022-07-30T06:00:47;100705.30;;;18.38;54.03
35577;BME280;21680;52.400;16.920;2022-07-30T06:03:14;100703.34;;;18.40;53.98
35577;BME280;21680;52.400;16.920;2022-07-30T06:05:40;100704.73;;;18.46;54.00
35577;BME280;21680;52.400;16.920;2022-07-30T06:08:06;100708.11;;;18.55;53.99
35577;BME280;21680;52.400;16.920;2022-07-30T06:10:33;100696.53;;;18.59;53.92
35577;BME280;21680;52.400;16.920;2022-07-30T06:12:59;100701.15;;;18.64;53.91
35577;BME280;21680;52.400;16.920;2022-07-30T06:15:25;100701.55;;;18.70;53.86
35577;BME280;21680;52.400;16.920;2022-07-30T06:17:51;100705.50;;;18.72;53.82
35577;BME280;21680;52.400;16.920;2022-07-30T06:20:19;100703.80;;;18.76;53.89
35577;BME280;21680;52.400;16.920;2022-07-30T06:22:45;100706.53;;;18.82;53.82
35577;BME280;21680;52.400;16.920;2022-07-30T06:25:11;100706.06;;;18.88;53.81
35577;BME280;21680;52.400;16.920;2022-07-30T06:27:38;100708.68;;;18.95;53.77
35577;BME280;21680;52.400;16.920;2022-07-30T06:30:06;100698.70;;;19.01;53.75
35577;BME280;21680;52.400;16.920;2022-07-30T06:32:34;100707.48;;;19.05;53.66
35577;BME280;21680;52.400;16.920;2022-07-30T06:35:00;100707.49;;;19.10;53.69
35577;BME280;21680;52.400;16.920;2022-07-30T06:37:27;100700.95;;;19.13;53.62
35577;BME280;21680;52.400;16.920;2022-07-30T06:39:53;100703.92;;;19.16;53.59
35577;BME280;21680;52.400;16.920;2022-07-30T06:42:19;100706.89;;;19.18;53.64
35577;BME280;21680;52.400;16.920;2022-07-30T06:44:46;100692.09;;;19.28;53.63
35577;BME280;21680;52.400;16.920;2022-07-30T06:47:11;100694.83;;;19.39;53.50
35577;BME280;21680;52.400;16.920;2022-07-30T06:49:38;100696.19;;;19.39;53.45
35577;BME280;21680;52.400;16.920;2022-07-30T06:52:04;100700.64;;;19.45;53.51
35577;BME280;21680;52.400;16.920;2022-07-30T06:54:31;100699.04;;;19.49;53.41
35577;BME280;21680;52.400;16.920;2022-07-30T06:56:56;100700.94;;;19.59;53.46
35577;BME280;21680;52.400;16.920;2022-07-30T06:59:22;100702.30;;;19.65;53.27
35577;BME280;21680;52.400;16.920;2022-07-30T07:01:48;100699.45;;;19.61;53.15
35577;BME280;21680;52.400;16.920;2022-07-30T07:04:15;100704.77;;;19.62;53.20
35577;BME280;21680;52.400;16.920;2022-07-30T07:06:41;100705.89;;;19.71;53.25
35577;BME280;21680;52.400;16.920;2022-07-30T07:09:06;100706.88;;;19.81;53.18
35577;BME280;21680;52.400;16.920;2022-07-30T07:11:34;100707.37;;;19.92;53.09
35577;BME280;21680;52.400;16.920;2022-07-30T07:13:59;100700.80;;;20.00;53.04
35577;BME280;21680;52.400;16.920;2022-07-30T07:16:25;100695.48;;;20.04;52.79
35577;BME280;21680;52.400;16.920;2022-07-30T07:18:52;100700.55;;;20.03;52.76
35577;BME280;21680;52.400;16.920;2022-07-30T07:21:19;100703.64;;;20.04;52.77
35577;BME280;21680;52.400;16.920;2022-07-30T07:23:46;100695.47;;;20.15;52.78
35577;BME280;21680;52.400;16.920;2022-07-30T07:26:15;100691.10;;;20.29;52.68
35577;BME280;21680;52.400;16.920;2022-07-30T07:28:42;100693.19;;;20.37;52.55
35577;BME280;21680;52.400;16.920;2022-07-30T07:31:09;100687.50;;;20.46;52.47
35577;BME280;21680;52.400;16.920;2022-07-30T07:33:36;100691.44;;;20.53;52.39
35577;BME280;21680;52.400;16.920;2022-07-30T07:36:04;100691.42;;;20.58;52.20
35577;BME280;21680;52.400;16.920;2022-07-30T07:38:31;100690.95;;;20.53;52.04
35577;BME280;21680;52.400;16.920;2022-07-30T07:40:57;100685.89;;;20.49;52.12
35577;BME280;21680;52.400;16.920;2022-07-30T07:43:22;100688.20;;;20.59;52.10
35577;BME280;21680;52.400;16.920;2022-07-30T07:45:49;100685.84;;;20.60;51.92
35577;BME280;21680;52.400;16.920;2022-07-30T07:48:16;100685.83;;;20.65;51.90
35577;BME280;21680;52.400;16.920;2022-07-30T07:50:43;100681.00;;;20.63;51.74
35577;BME280;21680;52.400;16.920;2022-07-30T07:53:09;100688.31;;;20.63;51.79
35577;BME280;21680;52.400;16.920;2022-07-30T07:55:35;100678.59;;;20.76;51.79
35577;BME280;21680;52.400;16.920;2022-07-30T07:58:01;100689.28;;;20.88;51.75
35577;BME280;21680;52.400;16.920;2022-07-30T08:00:27;100683.17;;;20.96;51.59
35577;BME280;21680;52.400;16.920;2022-07-30T08:02:53;100683.41;;;20.98;51.56
35577;BME280;21680;52.400;16.920;2022-07-30T08:05:19;100678.69;;;21.00;51.47
35577;BME280;21680;52.400;16.920;2022-07-30T08:07:45;100687.09;;;21.03;51.41
35577;BME280;21680;52.400;16.920;2022-07-30T08:10:11;100682.48;;;21.09;51.40
35577;BME280;21680;52.400;16.920;2022-07-30T08:12:39;100681.34;;;21.12;51.26
35577;BME280;21680;52.400;16.920;2022-07-30T08:15:06;100677.23;;;21.17;51.27
35577;BME280;21680;52.400;16.920;2022-07-30T08:17:44;100675.73;;;21.19;51.26
35577;BME280;21680;52.400;16.920;2022-07-30T08:20:13;100674.73;;;21.25;51.22
35577;BME280;21680;52.400;16.920;2022-07-30T08:22:40;100673.23;;;21.27;51.10
35577;BME280;21680;52.400;16.920;2022-07-30T08:25:07;100673.23;;;21.27;51.10
35577;BME280;21680;52.400;16.920;2022-07-30T08:27:35;100676.55;;;21.30;51.14
35577;BME280;21680;52.400;16.920;2022-07-30T08:30:06;100674.25;;;21.41;50.97
35577;BME280;21680;52.400;16.920;2022-07-30T08:32:33;100672.07;;;21.50;51.07
35577;BME280;21680;52.400;16.920;2022-07-30T08:35:01;100672.39;;;21.57;50.89
35577;BME280;21680;52.400;16.920;2022-07-30T08:37:28;100674.98;;;21.58;50.82
35577;BME280;21680;52.400;16.920;2022-07-30T08:39:54;100685.20;;;21.66;50.79
35577;BME280;21680;52.400;16.920;2022-07-30T08:42:21;100668.06;;;21.69;50.62
35577;BME280;21680;52.400;16.920;2022-07-30T08:44:47;100659.97;;;21.74;50.56
35577;BME280;21680;52.400;16.920;2022-07-30T08:47:18;100667.83;;;21.82;50.55
35577;BME280;21680;52.400;16.920;2022-07-30T08:49:47;100659.77;;;21.96;50.46
35577;BME280;21680;52.400;16.920;2022-07-30T08:52:13;100659.32;;;22.06;50.25
35577;BME280;21680;52.400;16.920;2022-07-30T08:54:40;100657.98;;;22.16;50.13
35577;BME280;21680;52.400;16.920;2022-07-30T08:57:06;100653.66;;;22.13;50.00
35577;BME280;21680;52.400;16.920;2022-07-30T08:59:35;100657.92;;;22.21;49.95
35577;BME280;21680;52.400;16.920;2022-07-30T09:02:03;100652.90;;;22.26;49.84
35577;BME280;21680;52.400;16.920;2022-07-30T09:04:29;100653.34;;;22.31;49.78
35577;BME280;21680;52.400;16.920;2022-07-30T09:06:55;100650.76;;;22.40;49.71
35577;BME280;21680;52.400;16.920;2022-07-30T09:09:22;100649.33;;;22.45;49.61
35577;BME280;21680;52.400;16.920;2022-07-30T09:11:48;100658.31;;;22.51;49.42
35577;BME280;21680;52.400;16.920;2022-07-30T09:14:14;100662.27;;;22.53;49.42
35577;BME280;21680;52.400;16.920;2022-07-30T09:16:40;100652.93;;;22.65;49.46
35577;BME280;21680;52.400;16.920;2022-07-30T09:19:17;100649.50;;;22.82;49.45
35577;BME280;21680;52.400;16.920;2022-07-30T09:21:58;100643.59;;;22.96;49.15
35577;BME280;21680;52.400;16.920;2022-07-30T09:24:25;100650.50;;;22.91;48.95
35577;BME280;21680;52.400;16.920;2022-07-30T09:27:01;100638.56;;;22.92;48.94
35577;BME280;21680;52.400;16.920;2022-07-30T09:29:30;100637.75;;;23.05;48.92
35577;BME280;21680;52.400;16.920;2022-07-30T09:32:06;100638.74;;;23.14;48.51
35577;BME280;21680;52.400;16.920;2022-07-30T09:34:36;100633.56;;;23.11;48.40
35577;BME280;21680;52.400;16.920;2022-07-30T09:39:42;100632.05;;;23.12;48.21
35577;BME280;21680;52.400;16.920;2022-07-30T09:42:23;100628.14;;;23.24;47.80
35577;BME280;21680;52.400;16.920;2022-07-30T09:44:47;100627.22;;;23.20;47.62
35577;BME280;21680;52.400;16.920;2022-07-30T09:50:07;100634.08;;;23.34;47.52
35577;BME280;21680;52.400;16.920;2022-07-30T09:52:36;100634.59;;;23.33;47.17
35577;BME280;21680;52.400;16.920;2022-07-30T09:55:05;100632.15;;;23.30;47.17
35577;BME280;21680;52.400;16.920;2022-07-30T09:57:32;100629.48;;;23.34;47.14
35577;BME280;21680;52.400;16.920;2022-07-30T10:02:46;100625.43;;;23.38;46.84
35577;BME280;21680;52.400;16.920;2022-07-30T10:05:13;100622.58;;;23.30;46.46
35577;BME280;21680;52.400;16.920;2022-07-30T10:07:56;100633.25;;;23.23;46.39
35577;BME280;21680;52.400;16.920;2022-07-30T10:10:28;100626.92;;;23.23;46.42
35577;BME280;21680;52.400;16.920;2022-07-30T10:13:00;100625.40;;;23.24;46.41
35577;BME280;21680;52.400;16.920;2022-07-30T10:15:33;100630.93;;;23.28;46.37
35577;BME280;21680;52.400;16.920;2022-07-30T10:18:01;100626.53;;;23.31;46.32
35577;BME280;21680;52.400;16.920;2022-07-30T10:20:28;100627.03;;;23.31;46.36
35577;BME280;21680;52.400;16.920;2022-07-30T10:22:55;100635.36;;;23.39;46.29
35577;BME280;21680;52.400;16.920;2022-07-30T10:25:23;100634.86;;;23.40;46.25
35577;BME280;21680;52.400;16.920;2022-07-30T10:27:50;100630.33;;;23.48;46.33
35577;BME280;21680;52.400;16.920;2022-07-30T10:30:17;100632.91;;;23.59;46.29
35577;BME280;21680;52.400;16.920;2022-07-30T10:32:45;100628.77;;;23.69;46.22
35577;BME280;21680;52.400;16.920;2022-07-30T10:35:13;100631.95;;;23.64;46.03
35577;BME280;21680;52.400;16.920;2022-07-30T10:37:45;100630.94;;;23.66;45.99
35577;BME280;21680;52.400;16.920;2022-07-30T10:49:14;100630.39;;;23.76;45.73
35577;BME280;21680;52.400;16.920;2022-07-30T11:02:28;100632.36;;;23.70;45.46
35577;BME280;21680;52.400;16.920;2022-07-30T11:07:47;100630.84;;;23.48;45.29
35577;BME280;21680;52.400;16.920;2022-07-30T11:10:36;100629.53;;;23.38;45.36
35577;BME280;21680;52.400;16.920;2022-07-30T11:13:05;100624.30;;;23.31;45.30
35577;BME280;21680;52.400;16.920;2022-07-30T11:15:53;100625.19;;;23.22;45.28
35577;BME280;21680;52.400;16.920;2022-07-30T11:18:22;100622.48;;;23.12;45.34
35577;BME280;21680;52.400;16.920;2022-07-30T11:21:15;100623.87;;;23.03;45.34
35577;BME280;21680;52.400;16.920;2022-07-30T11:23:43;100626.90;;;22.99;45.40
35577;BME280;21680;52.400;16.920;2022-07-30T11:26:45;100625.47;;;22.95;45.46
35577;BME280;21680;52.400;16.920;2022-07-30T11:28:59;100619.79;;;22.93;45.56
35577;BME280;21680;52.400;16.920;2022-07-30T11:31:27;100620.72;;;22.97;45.56
35577;BME280;21680;52.400;16.920;2022-07-30T11:37:12;100613.88;;;22.97;45.56
35577;BME280;21680;52.400;16.920;2022-07-30T11:47:50;100623.16;;;23.01;45.74
35577;BME280;21680;52.400;16.920;2022-07-30T11:50:18;100618.38;;;23.12;45.74
35577;BME280;21680;52.400;16.920;2022-07-30T11:52:51;100619.30;;;23.17;45.58
35577;BME280;21680;52.400;16.920;2022-07-30T11:55:31;100620.67;;;23.17;45.62
35577;BME280;21680;52.400;16.920;2022-07-30T11:57:59;100624.42;;;23.16;45.63
35577;BME280;21680;52.400;16.920;2022-07-30T12:00:39;100622.25;;;23.19;45.67
35577;BME280;21680;52.400;16.920;2022-07-30T12:03:11;100625.82;;;23.29;45.78
35577;BME280;21680;52.400;16.920;2022-07-30T12:05:40;100628.31;;;23.37;45.68
35577;BME280;21680;52.400;16.920;2022-07-30T12:08:08;100631.70;;;23.35;45.75
35577;BME280;21680;52.400;16.920;2022-07-30T12:10:35;100624.09;;;23.28;45.82
35577;BME280;21680;52.400;16.920;2022-07-30T12:13:11;100628.79;;;23.22;45.90
35577;BME280;21680;52.400;16.920;2022-07-30T12:15:44;100633.27;;;23.14;45.97
35577;BME280;21680;52.400;16.920;2022-07-30T12:18:12;100643.43;;;23.08;46.21
35577;BME280;21680;52.400;16.920;2022-07-30T12:20:41;100644.44;;;23.07;46.47
35577;BME280;21680;52.400;16.920;2022-07-30T12:23:14;100648.05;;;22.97;46.73
35577;BME280;21680;52.400;16.920;2022-07-30T12:25:42;100654.33;;;22.84;47.26
35577;BME280;21680;52.400;16.920;2022-07-30T12:28:09;100664.86;;;22.74;47.75
35577;BME280;21680;52.400;16.920;2022-07-30T12:30:39;100660.39;;;22.44;48.27
35577;BME280;21680;52.400;16.920;2022-07-30T12:33:06;100665.36;;;22.10;48.72
35577;BME280;21680;52.400;16.920;2022-07-30T12:35:46;100669.88;;;21.75;49.59
35577;BME280;21680;52.400;16.920;2022-07-30T12:38:14;100671.34;;;21.63;50.05
35577;BME280;21680;52.400;16.920;2022-07-30T12:41:01;100672.34;;;21.47;50.82
35577;BME280;21680;52.400;16.920;2022-07-30T12:43:45;100668.91;;;21.24;51.21
35577;BME280;21680;52.400;16.920;2022-07-30T12:46:12;100671.30;;;20.91;51.95
35577;BME280;21680;52.400;16.920;2022-07-30T12:48:51;100671.66;;;20.77;52.61
35577;BME280;21680;52.400;16.920;2022-07-30T12:51:24;100674.20;;;20.63;53.04
35577;BME280;21680;52.400;16.920;2022-07-30T12:53:52;100674.00;;;20.50;53.66
35577;BME280;21680;52.400;16.920;2022-07-30T12:56:28;100674.75;;;20.35;54.04
35577;BME280;21680;52.400;16.920;2022-07-30T12:58:54;100671.45;;;20.20;54.62
35577;BME280;21680;52.400;16.920;2022-07-30T13:01:41;100673.70;;;20.09;55.29
35577;BME280;21680;52.400;16.920;2022-07-30T13:04:09;100678.78;;;20.03;55.64
35577;BME280;21680;52.400;16.920;2022-07-30T13:06:36;100674.09;;;19.94;56.21
35577;BME280;21680;52.400;16.920;2022-07-30T13:09:05;100676.70;;;19.90;56.47
35577;BME280;21680;52.400;16.920;2022-07-30T13:11:40;100675.97;;;19.71;56.83
35577;BME280;21680;52.400;16.920;2022-07-30T13:14:09;100674.36;;;19.57;57.19
35577;BME280;21680;52.400;16.920;2022-07-30T13:16:38;100681.61;;;19.40;57.73
35577;BME280;21680;52.400;16.920;2022-07-30T13:19:09;100681.23;;;19.39;58.24
35577;BME280;21680;52.400;16.920;2022-07-30T13:21:37;100673.22;;;19.49;58.47
35577;BME280;21680;52.400;16.920;2022-07-30T13:24:04;100669.79;;;19.52;58.79
35577;BME280;21680;52.400;16.920;2022-07-30T13:26:30;100666.08;;;19.53;59.08
35577;BME280;21680;52.400;16.920;2022-07-30T13:28:57;100667.81;;;19.54;59.31
35577;BME280;21680;52.400;16.920;2022-07-30T13:31:24;100671.03;;;19.59;59.61